Terminal Aerodrome Forecast
Issued by NWS Nashville, TN

Home | Current Version | Previous Version | Text Only | Print | Product List | Glossary On
Versions: 1 2 3 4 5 6 7 8 9 10 11 12 13 14 15 16 17 18 19
000
FTUS44 KOHX 261157 AAA
TAFBNA
TAF AMD
KBNA 261157Z 2612/2712 00000KT 3SM BR SCT003 BKN250
     FM261330 10005KT P6SM SCT045 SCT250
     FM262000 05004KT P6SM BKN050 PROB30 2621/2703 P6SM -TSRA
      BKN050CB
     FM270300 00000KT P6SM SCT060 SCT150=

USA.gov is the U.S. government's official web portal to all federal, state and local government web resources and services.